createdAt,value
2023-12-09T00:02:11.436Z,12.73
2023-12-09T00:07:14.484Z,11.10
2023-12-09T00:12:18.817Z,11.10
2023-12-09T00:17:23.254Z,10.63
2023-12-09T00:22:26.351Z,11.00
2023-12-09T00:27:29.528Z,10.37
2023-12-09T00:32:33.921Z,10.13
2023-12-09T00:37:36.883Z,10.97
2023-12-09T00:42:39.903Z,11.50
2023-12-09T00:47:44.405Z,11.27
2023-12-09T00:52:47.346Z,8.57
2023-12-09T00:57:50.256Z,10.80
2023-12-09T01:02:54.742Z,9.60
2023-12-09T01:07:58.012Z,11.03
2023-12-09T01:13:00.921Z,9.50
2023-12-09T01:18:05.328Z,10.90
2023-12-09T01:23:09.740Z,10.67
2023-12-09T01:28:12.695Z,11.00
2023-12-09T01:33:17.109Z,12.70
2023-12-09T01:38:20.099Z,14.10
2023-12-09T01:43:23.321Z,13.20
2023-12-09T01:48:28.184Z,12.73
2023-12-09T01:53:32.149Z,15.10
2023-12-09T01:58:37.088Z,16.07
2023-12-09T02:03:42.491Z,14.63
2023-12-09T02:08:45.456Z,15.47
2023-12-09T02:13:57.642Z,16.87
2023-12-09T02:19:03.193Z,18.13
2023-12-09T02:24:07.926Z,15.90
2023-12-09T02:29:11.401Z,17.87
2023-12-09T02:34:15.955Z,15.40
2023-12-09T02:39:21.681Z,16.80
2023-12-09T02:44:24.944Z,16.00
2023-12-09T02:49:27.992Z,16.87
2023-12-09T02:54:32.341Z,17.77
2023-12-09T02:59:35.301Z,15.10
2023-12-09T03:04:38.289Z,18.17
2023-12-09T03:09:42.650Z,17.50
2023-12-09T03:14:45.593Z,17.60
2023-12-09T03:19:48.591Z,19.93
2023-12-09T03:24:52.906Z,20.70
2023-12-09T03:29:55.834Z,21.47
2023-12-09T03:34:58.811Z,23.30
2023-12-09T03:40:03.655Z,20.97
2023-12-09T03:45:07.788Z,22.43
2023-12-09T03:50:11.383Z,22.43
2023-12-09T03:55:17.826Z,21.00
2023-12-09T04:00:21.495Z,21.33
2023-12-09T04:05:24.634Z,20.43
2023-12-09T04:10:29.081Z,20.90
2023-12-09T04:15:32.124Z,20.90
2023-12-09T04:20:35.550Z,19.60
2023-12-09T04:25:39.818Z,19.90
2023-12-09T04:30:42.728Z,20.70
2023-12-09T04:35:46.176Z,18.70
2023-12-09T04:40:50.527Z,18.37
2023-12-09T04:45:54.400Z,19.77
2023-12-09T04:50:57.350Z,19.70
2023-12-09T04:56:01.624Z,19.57
2023-12-09T05:01:05.020Z,19.50
2023-12-09T05:06:09.728Z,21.50
2023-12-09T05:11:14.070Z,20.13
2023-12-09T05:16:16.978Z,19.60
2023-12-09T05:21:20.001Z,18.90
2023-12-09T05:26:24.725Z,19.03
2023-12-09T05:31:27.708Z,18.30
2023-12-09T05:36:30.763Z,19.10
2023-12-09T05:41:35.133Z,17.00
2023-12-09T05:46:38.262Z,18.87
2023-12-09T05:51:43.251Z,18.53
2023-12-09T05:56:51.053Z,18.60
2023-12-09T06:01:54.095Z,17.83
2023-12-09T06:06:57.043Z,19.87
2023-12-09T06:12:01.444Z,16.07
2023-12-09T06:17:04.713Z,18.70
2023-12-09T06:22:07.632Z,19.80
2023-12-09T06:27:11.999Z,19.30
2023-12-09T06:32:15.395Z,16.23
2023-12-09T06:37:18.967Z,18.00
2023-12-09T06:42:23.282Z,16.60
2023-12-09T06:47:26.546Z,16.60
2023-12-09T06:52:29.682Z,16.20
2023-12-09T06:57:34.249Z,19.87
2023-12-09T07:02:48.480Z,20.00
2023-12-09T07:07:59.462Z,16.70
2023-12-09T07:13:04.484Z,21.30
2023-12-09T07:18:07.518Z,17.80
2023-12-09T07:23:10.646Z,18.20
2023-12-09T07:28:14.980Z,16.50
2023-12-09T07:33:18.466Z,19.47
2023-12-09T07:38:21.560Z,21.67
2023-12-09T07:43:27.228Z,21.97
2023-12-09T07:48:30.569Z,22.80
2023-12-09T07:53:33.533Z,18.87
2023-12-09T07:58:37.786Z,20.73
2023-12-09T08:03:40.857Z,20.93
2023-12-09T08:08:43.818Z,24.17
2023-12-09T08:13:48.387Z,21.47
2023-12-09T08:18:51.454Z,19.43
2023-12-09T08:23:55.482Z,20.57
2023-12-09T08:28:59.820Z,20.97
2023-12-09T08:34:02.800Z,21.90
2023-12-09T08:39:05.908Z,20.13
2023-12-09T08:44:10.178Z,19.90
2023-12-09T08:49:13.236Z,21.63
2023-12-09T08:54:16.826Z,24.83
2023-12-09T08:59:21.115Z,24.07
2023-12-09T09:04:24.089Z,22.67
2023-12-09T09:09:27.052Z,24.20
2023-12-09T09:14:31.361Z,25.60
2023-12-09T09:19:34.335Z,26.37
2023-12-09T09:24:37.874Z,25.50
2023-12-09T09:29:42.255Z,25.47
2023-12-09T09:34:45.520Z,24.63
2023-12-09T09:39:48.789Z,25.37
2023-12-09T09:45:02.382Z,25.40
2023-12-09T09:50:07.036Z,24.73
2023-12-09T09:55:11.042Z,26.10
2023-12-09T10:00:17.765Z,24.53
2023-12-09T10:05:21.637Z,25.17
2023-12-09T10:10:24.991Z,23.43
2023-12-09T10:15:29.381Z,26.57
2023-12-09T10:20:32.736Z,26.47
2023-12-09T10:25:35.971Z,26.50
2023-12-09T10:30:40.469Z,25.73
2023-12-09T10:35:43.594Z,26.50
2023-12-09T10:40:46.514Z,25.80
2023-12-09T10:45:50.914Z,24.27
2023-12-09T10:50:54.136Z,26.70
2023-12-09T10:55:57.964Z,24.80
2023-12-09T11:01:03.514Z,23.87
2023-12-09T11:06:09.110Z,23.33
2023-12-09T11:11:12.752Z,25.00
2023-12-09T11:16:20.410Z,23.63
2023-12-09T11:21:27.189Z,25.00
2023-12-09T11:26:31.758Z,25.47
2023-12-09T11:31:38.852Z,26.37
2023-12-09T11:36:42.619Z,24.83
2023-12-09T11:41:46.641Z,22.93
2023-12-09T11:46:50.981Z,22.47
2023-12-09T11:51:53.965Z,23.83
2023-12-09T11:56:56.935Z,22.03
2023-12-09T12:02:02.021Z,25.53
2023-12-09T12:07:05.269Z,26.13
2023-12-09T12:12:08.814Z,24.50
2023-12-09T12:17:16.515Z,24.30
2023-12-09T12:22:20.669Z,24.70
2023-12-09T12:27:25.843Z,20.80
2023-12-09T12:32:31.419Z,20.47
2023-12-09T12:37:34.794Z,21.30
2023-12-09T12:42:38.133Z,22.47
2023-12-09T12:47:42.596Z,23.20
2023-12-09T12:52:47.011Z,22.07
2023-12-09T12:57:50.153Z,22.33
2023-12-09T13:02:54.506Z,20.77
2023-12-09T13:07:57.544Z,21.80
2023-12-09T13:13:01.018Z,22.70
2023-12-09T13:18:07.874Z,21.80
2023-12-09T13:23:11.098Z,24.00
2023-12-09T13:28:14.194Z,26.30
2023-12-09T20:48:24.197Z,35.37
2023-12-09T20:53:27.203Z,29.73
2023-12-09T20:58:30.930Z,28.17
2023-12-09T21:03:35.390Z,31.83
2023-12-09T21:08:40.432Z,29.37
2023-12-09T21:13:43.573Z,27.17
2023-12-09T21:18:48.607Z,29.67
2023-12-09T21:23:51.614Z,30.30
2023-12-09T21:28:54.609Z,46.53
2023-12-09T21:33:59.035Z,31.83
2023-12-09T21:39:02.081Z,33.10
2023-12-09T21:44:05.134Z,29.23
2023-12-09T21:49:09.542Z,33.07
2023-12-09T21:54:12.599Z,30.70
2023-12-09T21:59:15.629Z,32.27
2023-12-09T22:04:20.115Z,35.53
2023-12-09T22:09:23.650Z,35.10
2023-12-09T22:14:26.661Z,34.27
2023-12-09T22:19:31.117Z,34.40
2023-12-09T22:24:34.167Z,29.10
2023-12-09T22:29:37.253Z,29.70
2023-12-09T22:34:41.811Z,28.37
2023-12-09T22:39:44.948Z,30.00
2023-12-09T22:44:48.027Z,27.33
2023-12-09T22:49:52.570Z,28.53
2023-12-09T22:54:55.596Z,26.50
2023-12-09T22:59:58.855Z,30.17
2023-12-09T23:05:03.243Z,24.43
2023-12-09T23:10:07.190Z,30.27
2023-12-09T23:15:11.721Z,28.37
2023-12-09T23:20:16.251Z,23.10
2023-12-09T23:25:19.209Z,29.67
2023-12-09T23:30:22.435Z,23.93
2023-12-09T23:35:26.822Z,21.23
2023-12-09T23:40:29.788Z,23.73
2023-12-09T23:45:32.884Z,23.83
2023-12-09T23:50:37.302Z,20.87
2023-12-09T23:55:40.809Z,25.30
